x

Sentry Shoal (46131) Wave Buoy

2:00am - Wed 28th Jun 2017 All times are PDT. -7 hours from GMT.

  • Sig Wave height 2.0ft
  • Peak Period 3s
  • Wind
    13mph, 18mph gusts
  • Sea Temp 54°f
  • 空気 Temp 56°f
  • Sea Pressure 1014.8mb
  • Sentry Shoal
  • Sentry Shoal

More Historic Weather Station data

Upgrade to MSW Pro to gain access to the past 30 days of data for over 8000 Wavebouys and Weather Stations around the globe.

Join Pro

Comparision Forecast

View Surf forecast
   
Wed 06/28 2:00am 2ft 3s 13 18 mph 1014.8mb 54f 56f
1:00am 2.5ft 3s 18 22 mph 1014.6mb 54f 56f
12:00am 2.5ft 3s 22 25 mph 1014.3mb 55f 56f
Tue 06/27 11:00pm  -   -  20
mph
- - 82f
10:00pm 1.3ft 2s 20 25 mph 1014mb 57f 60f
8:00pm 1.6ft 3s 20 25 mph 1014mb 58f 63f
7:00pm 1.6ft 3s 18 20 mph 1014.1mb 58f 63f
6:00pm 1.3ft 3s 18 22 mph 1014.4mb 58f 64f
5:00pm 1ft 3s 16 22 mph 1015mb 60f 64f
4:00pm 0.7ft 2s 11 13 mph 1015.4mb 60f 64f
3:00pm 0.7ft 3s 13 16 mph 1015.7mb 61f 62f
2:00pm 0.3ft 3s 7 7 mph 1016.3mb 61f 61f
1:00pm 0.7ft 2s 7 9 mph 1016.5mb 57f 60f
12:00pm 1ft 3s 9 11 mph 1016.7mb 56f 59f
11:00am 1.3ft 3s 11 13 mph 1016.6mb 56f 58f
10:00am 1.6ft 2s 16 18 mph 1016.6mb 55f 57f
9:00am 1.6ft 3s 16 20 mph 1016.7mb 57f 57f
8:00am 1ft 3s 13 16 mph 1016.8mb 57f 56f
7:00am 1.3ft 3s 13 16 mph 1016.6mb 57f 56f
6:00am 1.6ft 3s 18 22 mph 1016.1mb 57f 56f
5:00am 1.6ft 3s 18 22 mph 1015.8mb 57f 56f
4:00am 2ft 3s 18 20 mph 1015.9mb 57f 56f
3:00am 2ft 3s 22 27 mph 1015.2mb 57f 57f
2:00am 1ft 3s 18 20 mph 1015.1mb 58f 57f
1:00am 1.3ft 4s 11 13 mph 1015.2mb 59f 58f
12:00am 2ft 3s 18 20 mph 1014.7mb 55f 58f
Mon 06/26 11:00pm 2.5ft 3s 20 25 mph 1014.4mb 56f 59f
10:00pm 2.5ft 3s 13 18 mph 1014.2mb 56f 59f
9:00pm 2ft 3s 20 25 mph 1013.3mb 56f 60f
8:00pm 1.6ft 2s 18 20 mph 1013.2mb 58f 62f
7:00pm 2ft 3s 20 27 mph 1013mb 58f 64f
6:00pm 1.6ft 3s 20 22 mph 1013mb 58f 64f
5:00pm 1.6ft 3s 18 20 mph 1013.1mb 58f 64f
4:00pm 1.3ft 3s 18 20 mph 1013.4mb 58f 64f
3:00pm 1ft 3s 16 18 mph 1013.7mb 58f 64f
2:00pm 1ft 3s 11 13 mph 1013.6mb 59f 62f
1:00pm 1.3ft 3s 16 18 mph 1013.3mb 59f 62f
12:00pm 1ft 3s 16 18 mph 1013.6mb 58f 61f
11:00am 1.3ft 3s 16 18 mph 1013.4mb 58f 60f
10:00am 1.6ft 3s 16 20 mph 1013.6mb 56f 58f
9:00am 1.6ft 3s 18 20 mph 1013.4mb 56f 57f
8:00am 1.6ft 3s 20 25 mph 1012.9mb 56f 56f
7:00am 2.5ft 3s 18 22 mph 1012.9mb 57f 56f
6:00am 2.5ft 3s 20 25 mph 1012.6mb 58f 55f
5:00am 2.5ft 3s 20 22 mph 1012.3mb 59f 56f
4:00am 2ft 4s 20 25 mph 1012.1mb 59f 57f
3:00am 1.6ft 3s 18 22 mph 1011.5mb 60f 57f
2:00am 1.3ft 3s 18 20 mph 1011.1mb 60f 58f
1:00am 1.6ft 4s 16 20 mph 1010.8mb 59f 60f
12:00am 1.6ft 3s 18 20 mph 1010.6mb 59f 61f
Sun 06/25 11:00pm 1.6ft 2s 18 20 mph 1010.2mb 59f 62f
10:00pm 1ft 2s 20 25 mph 1009.7mb 61f 64f
9:00pm 0.7ft 2s 18 20 mph 1009.6mb 64f 67f
8:00pm 0.3ft 2s 11 16 mph 1009.5mb 66f 72f
7:00pm 0.3ft 2s 7 9 mph 1009.3mb 66f 69f
6:00pm 0.3ft 2s 2 2 mph 1009.9mb 65f 70f
5:00pm 0.3ft 2s 2 4 mph 1010.6mb 67f 71f
4:00pm 0.3ft 2s 2 2 mph 1011.4mb 64f 71f
3:00pm 0.3ft 2s  -  mph 1012.2mb 63f 75f
2:00pm  -  3s  -  2 mph 1012.9mb 62f 70f
1:00pm 0.3ft 2s 2 2 mph 1013.5mb 63f 66f
12:00pm 0.3ft 2s 2 4 mph 1014.1mb 63f 63f
11:00am 0.3ft 2s 4 4 mph 1014.6mb 61f 63f
10:00am 0.3ft 2s 7 9 mph 1015mb 60f 62f
9:00am 0.3ft 3s 9 11 mph 1015.1mb 60f 62f
8:00am 0.7ft 2s 11 13 mph 1015.2mb 60f 61f
7:00am 0.7ft 2s 13 16 mph 1015.1mb 59f 62f
6:00am 0.7ft 2s 11 13 mph 1015.1mb 58f 62f
5:00am 0.7ft 2s 13 13 mph 1015.2mb 59f 62f
4:00am 0.7ft 2s 13 16 mph 1015.1mb 59f 63f
3:00am 0.7ft 2s 11 13 mph 1015.4mb 59f 63f
2:00am 0.7ft 2s 13 16 mph 1015.5mb 60f 65f
1:00am 0.3ft 2s 11 13 mph 1015.6mb 60f 65f
12:00am 0.3ft 6s 9 9 mph 1015.9mb 61f 63f
Sat 06/24 11:00pm 0.3ft 2s 7 7 mph 1016mb 63f 64f
10:00pm 0.3ft 4s 4 4 mph 1016.3mb 60f 65f
9:00pm 0.3ft 2s 4 4 mph 1016.3mb 60f 67f
8:00pm 0.3ft 2s 4 4 mph 1016.5mb 60f 69f
7:00pm 0.3ft 2s 2 4 mph 1017.1mb 62f 69f
6:00pm 0.3ft 2s 2 4 mph 1017.6mb 64f 71f
5:00pm 0.3ft 2s 2 2 mph 1018.5mb 68f 74f
4:00pm 0.3ft 2s 4 4 mph 1019.3mb 66f 72f
3:00pm 0.3ft 2s 2 2 mph 1020mb 67f 71f
2:00pm 0.3ft 2s 2 2 mph 1020.7mb 65f 69f
1:00pm 0.3ft 2s 2 4 mph 1021.3mb 64f 67f
12:00pm 0.3ft 2s 2 4 mph 1022mb 61f 64f
11:00am 0.3ft 3s 2 4 mph 1022.5mb 62f 62f